SBI7520 LTFG-UTDD
Flight info
| Callsign | SBI7520 |
|---|---|
| Flight time | 3h 58m |
| Altitude | 37000 |
| Route | LTFG N0448F370 ELRO1T ELROP UT339 MUT UA285 SIV UA4 ERZ UB374 INDUR N449 DUKAN A480 KRS B701 TUGTA A909 BABUM A477 AKRAM R226 MANAT ERNUX INDUD REBNA OKDOR PINUD PR1E PR FUXUL GEFAX AGFUX RW09 UTDD |
| Aircraft | B738/M-SDGIWZ/S |
Departure
| Time | 2026-05-06 06:38 |
|---|---|
| Airport | Gazipaşa-Alanya Airport (LTFG) |
Arrival
| Time | 2026-05-06 10:37 |
|---|---|
| Airport | Dushanbe International Airport (UTDD) |
| Time | Latitude | Longitude | Altitude | Speed | Heading |
|---|---|---|---|---|---|
| 2026-05-06 06:24 | 36.29803 | 32.30112 | 134 ft | 0 kts | 211° |
| 2026-05-06 06:34 | 36.29805 | 32.30114 | 134 ft | 1 kts | 211° |
| 2026-05-06 06:35 | 36.29823 | 32.30131 | 134 ft | 4 kts | 243° |
| 2026-05-06 06:35 | 36.29832 | 32.30190 | 134 ft | 8 kts | 262° |
| 2026-05-06 06:35 | 36.29837 | 32.30238 | 134 ft | 0 kts | 262° |
| 2026-05-06 06:35 | 36.29834 | 32.30215 | 134 ft | 4 kts | 262° |
| 2026-05-06 06:36 | 36.29832 | 32.30171 | 134 ft | 5 kts | 290° |
| 2026-05-06 06:36 | 36.29881 | 32.30146 | 134 ft | 12 kts | 349° |
| 2026-05-06 06:36 | 36.29940 | 32.30174 | 134 ft | 17 kts | 63° |
| 2026-05-06 06:36 | 36.29969 | 32.30374 | 134 ft | 30 kts | 81° |
| 2026-05-06 06:37 | 36.30006 | 32.30689 | 134 ft | 39 kts | 81° |
| 2026-05-06 06:37 | 36.30078 | 32.31001 | 134 ft | 19 kts | 81° |
| 2026-05-06 06:37 | 36.30053 | 32.31031 | 134 ft | 3 kts | 216° |
| 2026-05-06 06:37 | 36.30042 | 32.30978 | 134 ft | 8 kts | 262° |
| 2026-05-06 06:38 | 36.29996 | 32.30581 | 134 ft | 85 kts | 262° |
| 2026-05-06 06:38 | 36.29822 | 32.29118 | 135 ft | 167 kts | 261° |
| 2026-05-06 06:38 | 36.29704 | 32.28108 | 300 ft | 184 kts | 262° |
| 2026-05-06 06:38 | 36.29457 | 32.25947 | 1120 ft | 194 kts | 260° |
| 2026-05-06 06:39 | 36.29318 | 32.24823 | 1487 ft | 202 kts | 261° |
| 2026-05-06 06:39 | 36.29017 | 32.22359 | 1908 ft | 233 kts | 261° |
| 2026-05-06 06:39 | 36.28692 | 32.20393 | 2469 ft | 239 kts | 248° |
| 2026-05-06 06:39 | 36.27664 | 32.18792 | 3080 ft | 240 kts | 210° |
| 2026-05-06 06:40 | 36.26646 | 32.18331 | 3541 ft | 238 kts | 186° |
| 2026-05-06 06:40 | 36.24489 | 32.18819 | 4350 ft | 245 kts | 163° |
| 2026-05-06 06:40 | 36.22820 | 32.19271 | 4998 ft | 254 kts | 171° |
| 2026-05-06 06:40 | 36.21035 | 32.19647 | 5618 ft | 265 kts | 165° |
| 2026-05-06 06:41 | 36.19432 | 32.20732 | 6329 ft | 271 kts | 134° |
| 2026-05-06 06:41 | 36.18523 | 32.22752 | 7067 ft | 277 kts | 102° |
| 2026-05-06 06:41 | 36.18597 | 32.25110 | 7814 ft | 282 kts | 77° |
| 2026-05-06 06:41 | 36.18923 | 32.26694 | 8343 ft | 283 kts | 77° |
| 2026-05-06 06:42 | 36.19419 | 32.29927 | 9207 ft | 291 kts | 82° |
| 2026-05-06 06:42 | 36.19732 | 32.32410 | 9912 ft | 295 kts | 82° |
| 2026-05-06 06:42 | 36.19940 | 32.34070 | 10305 ft | 300 kts | 82° |
| 2026-05-06 06:42 | 36.20263 | 32.36716 | 10424 ft | 325 kts | 82° |
| 2026-05-06 06:43 | 36.20721 | 32.40564 | 10778 ft | 349 kts | 82° |
| 2026-05-06 06:43 | 36.21079 | 32.43588 | 11228 ft | 360 kts | 82° |
| 2026-05-06 06:43 | 36.21321 | 32.45643 | 11688 ft | 362 kts | 82° |
| 2026-05-06 06:43 | 36.21806 | 32.49765 | 12448 ft | 369 kts | 82° |
| 2026-05-06 06:44 | 36.22081 | 32.51870 | 12912 ft | 370 kts | 77° |
| 2026-05-06 06:44 | 36.23025 | 32.54853 | 13428 ft | 376 kts | 55° |
| 2026-05-06 06:44 | 36.25579 | 32.57634 | 14249 ft | 375 kts | 23° |
| 2026-05-06 06:44 | 36.28069 | 32.58523 | 14862 ft | 375 kts | 9° |
| 2026-05-06 06:45 | 36.30661 | 32.59127 | 15314 ft | 382 kts | 10° |
| 2026-05-06 06:45 | 36.33250 | 32.59868 | 15911 ft | 384 kts | 12° |
| 2026-05-06 06:45 | 36.35815 | 32.60661 | 16415 ft | 389 kts | 12° |
| 2026-05-06 06:45 | 36.38465 | 32.61485 | 16940 ft | 392 kts | 12° |
| 2026-05-06 06:46 | 36.41079 | 32.62303 | 17498 ft | 393 kts | 12° |
| 2026-05-06 06:46 | 36.43748 | 32.63148 | 17981 ft | 397 kts | 12° |
| 2026-05-06 06:46 | 36.46392 | 32.64025 | 18464 ft | 400 kts | 16° |
| 2026-05-06 06:46 | 36.48996 | 32.65360 | 18920 ft | 405 kts | 27° |
| 2026-05-06 06:47 | 36.50579 | 32.66609 | 19223 ft | 408 kts | 37° |
| 2026-05-06 06:47 | 36.52612 | 32.69078 | 19663 ft | 412 kts | 51° |
| 2026-05-06 06:47 | 36.54812 | 32.72928 | 20264 ft | 416 kts | 55° |
| 2026-05-06 06:47 | 36.55908 | 32.74894 | 20471 ft | 419 kts | 54° |
| 2026-05-06 06:48 | 36.58161 | 32.78838 | 20918 ft | 421 kts | 54° |
| 2026-05-06 06:48 | 36.59289 | 32.80818 | 21141 ft | 422 kts | 54° |
| 2026-05-06 06:48 | 36.60980 | 32.83809 | 21436 ft | 425 kts | 54° |
| 2026-05-06 06:48 | 36.63258 | 32.87855 | 21842 ft | 428 kts | 54° |
| 2026-05-06 06:49 | 36.64956 | 32.90876 | 22122 ft | 430 kts | 55° |
| 2026-05-06 06:49 | 36.66670 | 32.93931 | 22426 ft | 431 kts | 55° |
| 2026-05-06 06:49 | 36.67812 | 32.95969 | 22599 ft | 433 kts | 55° |
| 2026-05-06 06:49 | 36.70100 | 33.00058 | 22968 ft | 435 kts | 55° |
| 2026-05-06 06:50 | 36.71264 | 33.02142 | 23138 ft | 437 kts | 55° |
| 2026-05-06 06:50 | 36.73560 | 33.06254 | 23504 ft | 438 kts | 55° |
| 2026-05-06 06:50 | 36.75309 | 33.09391 | 23736 ft | 441 kts | 56° |
| 2026-05-06 06:50 | 36.77058 | 33.12531 | 23998 ft | 442 kts | 56° |
| 2026-05-06 06:51 | 36.78205 | 33.14593 | 24160 ft | 443 kts | 56° |
| 2026-05-06 06:51 | 36.80557 | 33.18823 | 24466 ft | 445 kts | 56° |
| 2026-05-06 06:51 | 36.81740 | 33.20955 | 24620 ft | 446 kts | 56° |
| 2026-05-06 06:51 | 36.84088 | 33.25175 | 24902 ft | 449 kts | 54° |
| 2026-05-06 06:52 | 36.85995 | 33.28259 | 25132 ft | 450 kts | 49° |
| 2026-05-06 06:52 | 36.88166 | 33.31082 | 25338 ft | 452 kts | 43° |
| 2026-05-06 06:52 | 36.90475 | 33.33738 | 25558 ft | 453 kts | 42° |
| 2026-05-06 06:52 | 36.92802 | 33.36424 | 25739 ft | 456 kts | 43° |
| 2026-05-06 06:53 | 36.94331 | 33.38211 | 25881 ft | 456 kts | 43° |
| 2026-05-06 06:53 | 36.96661 | 33.40929 | 26093 ft | 457 kts | 43° |
| 2026-05-06 06:53 | 36.99762 | 33.44523 | 26335 ft | 459 kts | 42° |
| 2026-05-06 06:53 | 37.02096 | 33.47219 | 26523 ft | 461 kts | 42° |
| 2026-05-06 06:54 | 37.04466 | 33.49957 | 26721 ft | 462 kts | 42° |
| 2026-05-06 06:54 | 37.06804 | 33.52657 | 26892 ft | 463 kts | 42° |
| 2026-05-06 06:54 | 37.09176 | 33.55397 | 27057 ft | 465 kts | 42° |
| 2026-05-06 06:54 | 37.10767 | 33.57233 | 27193 ft | 465 kts | 42° |
| 2026-05-06 06:55 | 37.13925 | 33.60881 | 27408 ft | 467 kts | 42° |
| 2026-05-06 06:55 | 37.15519 | 33.62723 | 27503 ft | 468 kts | 42° |
| 2026-05-06 06:55 | 37.17911 | 33.65488 | 27660 ft | 469 kts | 42° |
| 2026-05-06 06:55 | 37.21120 | 33.69201 | 27864 ft | 470 kts | 42° |
| 2026-05-06 06:56 | 37.22708 | 33.71041 | 27972 ft | 471 kts | 42° |
| 2026-05-06 06:56 | 37.25122 | 33.73838 | 28105 ft | 472 kts | 42° |
| 2026-05-06 06:56 | 37.28322 | 33.77549 | 28299 ft | 473 kts | 42° |
| 2026-05-06 06:56 | 37.30719 | 33.80333 | 28424 ft | 474 kts | 42° |
| 2026-05-06 06:57 | 37.32353 | 33.82232 | 28513 ft | 475 kts | 42° |
| 2026-05-06 06:57 | 37.35566 | 33.85967 | 28696 ft | 476 kts | 42° |
| 2026-05-06 06:57 | 37.38000 | 33.88801 | 28781 ft | 478 kts | 42° |
| 2026-05-06 06:57 | 37.40434 | 33.91636 | 28929 ft | 478 kts | 42° |
| 2026-05-06 06:58 | 37.42843 | 33.94445 | 29028 ft | 479 kts | 42° |
| 2026-05-06 06:58 | 37.45291 | 33.97303 | 29145 ft | 480 kts | 42° |
| 2026-05-06 06:58 | 37.46941 | 33.99233 | 29234 ft | 480 kts | 42° |
| 2026-05-06 06:58 | 37.50188 | 34.03039 | 29364 ft | 482 kts | 42° |
| 2026-05-06 06:59 | 37.52634 | 34.05909 | 29497 ft | 482 kts | 42° |
| 2026-05-06 06:59 | 37.55063 | 34.08761 | 29622 ft | 483 kts | 42° |
| 2026-05-06 06:59 | 37.57508 | 34.11640 | 29704 ft | 484 kts | 42° |
| 2026-05-06 06:59 | 37.59974 | 34.14547 | 29945 ft | 481 kts | 42° |
| 2026-05-06 07:00 | 37.62384 | 34.17392 | 30127 ft | 480 kts | 42° |
| 2026-05-06 07:00 | 37.64838 | 34.20293 | 30249 ft | 480 kts | 42° |
| 2026-05-06 07:00 | 37.67262 | 34.23150 | 30350 ft | 481 kts | 42° |
| 2026-05-06 07:00 | 37.69690 | 34.26005 | 30470 ft | 481 kts | 42° |
| 2026-05-06 07:01 | 37.72144 | 34.28884 | 30657 ft | 479 kts | 41° |
| 2026-05-06 07:01 | 37.73762 | 34.30783 | 30811 ft | 478 kts | 41° |
| 2026-05-06 07:01 | 37.76178 | 34.33637 | 30959 ft | 477 kts | 42° |
| 2026-05-06 07:01 | 37.79399 | 34.37472 | 31123 ft | 477 kts | 42° |
| 2026-05-06 07:02 | 37.81785 | 34.40327 | 31247 ft | 478 kts | 42° |
| 2026-05-06 07:02 | 37.86633 | 34.46109 | 31481 ft | 478 kts | 42° |
| 2026-05-06 07:02 | 37.89031 | 34.48967 | 31599 ft | 477 kts | 42° |
| 2026-05-06 07:03 | 37.91419 | 34.51814 | 31784 ft | 476 kts | 41° |
| 2026-05-06 07:03 | 37.93826 | 34.54669 | 31901 ft | 476 kts | 41° |
| 2026-05-06 07:03 | 37.95456 | 34.56597 | 31993 ft | 475 kts | 41° |
| 2026-05-06 07:03 | 37.97860 | 34.59443 | 32112 ft | 475 kts | 41° |
| 2026-05-06 07:04 | 38.01045 | 34.63231 | 32248 ft | 476 kts | 41° |
| 2026-05-06 07:04 | 38.05830 | 34.68962 | 32501 ft | 475 kts | 42° |
| 2026-05-06 07:05 | 38.10641 | 34.74704 | 32718 ft | 474 kts | 42° |
| 2026-05-06 07:05 | 38.14650 | 34.79471 | 32872 ft | 474 kts | 42° |
| 2026-05-06 07:06 | 38.19415 | 34.85176 | 33024 ft | 475 kts | 42° |
| 2026-05-06 07:06 | 38.24989 | 34.91911 | 33195 ft | 476 kts | 42° |
| 2026-05-06 07:07 | 38.29762 | 34.97683 | 33358 ft | 476 kts | 42° |
| 2026-05-06 07:07 | 38.34580 | 35.03443 | 33491 ft | 477 kts | 41° |
| 2026-05-06 07:08 | 38.39487 | 35.09177 | 33646 ft | 477 kts | 39° |
| 2026-05-06 07:08 | 38.44553 | 35.14520 | 33772 ft | 478 kts | 38° |
| 2026-05-06 07:09 | 38.49650 | 35.19947 | 33938 ft | 478 kts | 38° |
| 2026-05-06 07:09 | 38.54649 | 35.25528 | 34094 ft | 479 kts | 43° |
| 2026-05-06 07:10 | 38.59316 | 35.31617 | 34235 ft | 480 kts | 44° |
| 2026-05-06 07:10 | 38.63989 | 35.37645 | 34415 ft | 479 kts | 43° |
| 2026-05-06 07:11 | 38.68710 | 35.43652 | 34593 ft | 478 kts | 43° |
| 2026-05-06 07:11 | 38.73360 | 35.49638 | 34755 ft | 478 kts | 43° |
| 2026-05-06 07:12 | 38.78030 | 35.55662 | 34924 ft | 477 kts | 43° |
| 2026-05-06 07:12 | 38.82711 | 35.61689 | 35073 ft | 477 kts | 43° |
| 2026-05-06 07:13 | 38.87344 | 35.67688 | 35216 ft | 476 kts | 44° |
| 2026-05-06 07:13 | 38.91990 | 35.73702 | 35339 ft | 476 kts | 43° |
| 2026-05-06 07:14 | 38.96672 | 35.79684 | 35476 ft | 475 kts | 41° |
| 2026-05-06 07:14 | 39.01437 | 35.85515 | 35638 ft | 474 kts | 40° |
| 2026-05-06 07:15 | 39.06148 | 35.91352 | 35805 ft | 472 kts | 41° |
| 2026-05-06 07:15 | 39.10839 | 35.97208 | 35961 ft | 471 kts | 41° |
| 2026-05-06 07:16 | 39.15558 | 36.03062 | 36089 ft | 470 kts | 41° |
| 2026-05-06 07:16 | 39.20099 | 36.09086 | 36224 ft | 470 kts | 44° |
| 2026-05-06 07:17 | 39.24554 | 36.15155 | 36359 ft | 469 kts | 43° |
| 2026-05-06 07:17 | 39.29060 | 36.21183 | 36477 ft | 468 kts | 43° |
| 2026-05-06 07:18 | 39.33550 | 36.27243 | 36610 ft | 467 kts | 43° |
| 2026-05-06 07:18 | 39.37974 | 36.33326 | 36725 ft | 466 kts | 43° |
| 2026-05-06 07:19 | 39.42442 | 36.39370 | 36839 ft | 465 kts | 42° |
| 2026-05-06 07:19 | 39.46895 | 36.45372 | 36962 ft | 464 kts | 43° |
| 2026-05-06 07:20 | 39.51305 | 36.51411 | 37095 ft | 463 kts | 43° |
| 2026-05-06 07:20 | 39.55746 | 36.57470 | 37103 ft | 465 kts | 43° |
| 2026-05-06 07:21 | 39.60210 | 36.63529 | 37102 ft | 467 kts | 43° |
| 2026-05-06 07:21 | 39.64664 | 36.69652 | 37100 ft | 469 kts | 44° |
| 2026-05-06 07:22 | 39.69104 | 36.75802 | 37099 ft | 470 kts | 44° |
| 2026-05-06 07:22 | 39.73589 | 36.81972 | 37101 ft | 471 kts | 44° |
| 2026-05-06 07:23 | 39.77595 | 36.88687 | 37098 ft | 476 kts | 60° |
| 2026-05-06 07:23 | 39.78841 | 36.92600 | 37101 ft | 478 kts | 74° |
| 2026-05-06 07:23 | 39.79477 | 36.96836 | 37108 ft | 478 kts | 83° |
| 2026-05-06 07:24 | 39.80133 | 37.05446 | 37101 ft | 480 kts | 85° |
| 2026-05-06 07:24 | 39.80919 | 37.14093 | 37099 ft | 482 kts | 85° |
| 2026-05-06 07:25 | 39.81679 | 37.22738 | 37102 ft | 483 kts | 86° |
| 2026-05-06 07:25 | 39.82408 | 37.31414 | 37102 ft | 485 kts | 86° |
| 2026-05-06 07:26 | 39.83127 | 37.40102 | 37102 ft | 487 kts | 86° |
| 2026-05-06 07:26 | 39.83850 | 37.48846 | 37100 ft | 487 kts | 87° |
| 2026-05-06 07:27 | 39.84505 | 37.57602 | 37101 ft | 488 kts | 87° |
| 2026-05-06 07:27 | 39.85170 | 37.66404 | 37103 ft | 489 kts | 88° |
| 2026-05-06 07:28 | 39.85828 | 37.75201 | 37103 ft | 489 kts | 88° |
| 2026-05-06 07:28 | 39.86698 | 37.86856 | 37104 ft | 487 kts | 87° |
| 2026-05-06 07:29 | 39.87429 | 37.97100 | 37111 ft | 488 kts | 88° |
| 2026-05-06 07:29 | 39.87980 | 38.05884 | 37119 ft | 488 kts | 89° |
| 2026-05-06 07:30 | 39.88530 | 38.14647 | 37123 ft | 488 kts | 88° |
| 2026-05-06 07:30 | 39.89137 | 38.23386 | 37112 ft | 487 kts | 88° |
| 2026-05-06 07:31 | 39.89755 | 38.32161 | 37095 ft | 488 kts | 88° |
| 2026-05-06 07:31 | 39.90269 | 38.39500 | 37082 ft | 488 kts | 88° |
| 2026-05-06 07:32 | 39.90864 | 38.48268 | 37073 ft | 488 kts | 88° |
| 2026-05-06 07:32 | 39.91582 | 38.58488 | 37055 ft | 487 kts | 87° |
| 2026-05-06 07:33 | 39.92184 | 38.67250 | 37049 ft | 488 kts | 89° |
| 2026-05-06 07:33 | 39.92737 | 38.76100 | 37045 ft | 488 kts | 89° |
| 2026-05-06 07:34 | 39.93291 | 38.84824 | 37047 ft | 484 kts | 89° |
| 2026-05-06 07:34 | 39.93786 | 38.93507 | 37047 ft | 483 kts | 91° |
| 2026-05-06 07:35 | 39.93885 | 39.00831 | 37048 ft | 484 kts | 93° |
| 2026-05-06 07:35 | 39.93980 | 39.11019 | 37046 ft | 486 kts | 92° |
| 2026-05-06 07:36 | 39.94113 | 39.19807 | 37047 ft | 487 kts | 92° |
| 2026-05-06 07:36 | 39.94244 | 39.28598 | 37045 ft | 486 kts | 92° |
| 2026-05-06 07:37 | 39.94362 | 39.37378 | 37046 ft | 486 kts | 92° |
| 2026-05-06 07:37 | 39.94498 | 39.46188 | 37048 ft | 486 kts | 92° |
| 2026-05-06 07:38 | 39.94600 | 39.55006 | 37043 ft | 488 kts | 92° |
| 2026-05-06 07:38 | 39.94702 | 39.63823 | 37050 ft | 488 kts | 92° |
| 2026-05-06 07:39 | 39.94805 | 39.72638 | 37046 ft | 485 kts | 93° |
| 2026-05-06 07:39 | 39.94924 | 39.81384 | 37047 ft | 485 kts | 92° |
| 2026-05-06 07:40 | 39.95023 | 39.90139 | 37049 ft | 486 kts | 94° |
| 2026-05-06 07:40 | 39.95083 | 39.98902 | 37048 ft | 485 kts | 93° |
| 2026-05-06 07:41 | 39.95166 | 40.06258 | 37045 ft | 486 kts | 94° |
| 2026-05-06 07:41 | 39.95236 | 40.16474 | 37050 ft | 486 kts | 93° |
| 2026-05-06 07:42 | 39.95273 | 40.25295 | 37047 ft | 486 kts | 93° |
| 2026-05-06 07:42 | 39.95327 | 40.34082 | 37046 ft | 487 kts | 93° |
| 2026-05-06 07:43 | 39.95425 | 40.42875 | 37048 ft | 487 kts | 92° |
| 2026-05-06 07:43 | 39.95554 | 40.51651 | 37046 ft | 487 kts | 92° |
| 2026-05-06 07:44 | 39.95580 | 40.60464 | 37044 ft | 485 kts | 94° |
| 2026-05-06 07:44 | 39.95549 | 40.69242 | 37046 ft | 485 kts | 94° |
| 2026-05-06 07:45 | 39.95534 | 40.78038 | 37046 ft | 486 kts | 94° |
| 2026-05-06 07:45 | 39.95536 | 40.86812 | 37043 ft | 485 kts | 93° |
| 2026-05-06 07:46 | 39.95538 | 40.95573 | 37048 ft | 487 kts | 93° |
| 2026-05-06 07:46 | 39.95536 | 41.04384 | 37045 ft | 488 kts | 92° |
| 2026-05-06 07:47 | 39.95542 | 41.13193 | 37049 ft | 488 kts | 93° |
| 2026-05-06 07:47 | 39.95615 | 41.20566 | 37044 ft | 489 kts | 90° |
| 2026-05-06 07:48 | 39.96153 | 41.29399 | 37050 ft | 492 kts | 87° |
| 2026-05-06 07:48 | 39.96913 | 41.39718 | 37045 ft | 489 kts | 86° |
| 2026-05-06 07:49 | 39.97592 | 41.48550 | 37044 ft | 489 kts | 86° |
| 2026-05-06 07:49 | 39.98276 | 41.57304 | 37047 ft | 490 kts | 86° |
| 2026-05-06 07:50 | 39.98909 | 41.66158 | 37045 ft | 490 kts | 87° |
| 2026-05-06 07:50 | 39.99421 | 41.73532 | 37045 ft | 490 kts | 88° |
| 2026-05-06 07:51 | 40.00140 | 41.83796 | 37048 ft | 489 kts | 87° |
| 2026-05-06 07:51 | 40.00759 | 41.92630 | 37048 ft | 490 kts | 87° |
| 2026-05-06 07:52 | 40.01377 | 42.01429 | 37048 ft | 489 kts | 87° |
| 2026-05-06 07:52 | 40.01999 | 42.10266 | 37048 ft | 490 kts | 87° |
| 2026-05-06 07:53 | 40.02513 | 42.17597 | 37046 ft | 488 kts | 88° |
| 2026-05-06 07:53 | 40.03214 | 42.27874 | 37047 ft | 489 kts | 86° |
| 2026-05-06 07:54 | 40.03833 | 42.36705 | 37043 ft | 490 kts | 86° |
| 2026-05-06 07:54 | 40.04450 | 42.45484 | 37047 ft | 490 kts | 86° |
| 2026-05-06 07:55 | 40.05112 | 42.54303 | 37048 ft | 487 kts | 86° |
| 2026-05-06 07:55 | 40.05761 | 42.63124 | 37047 ft | 488 kts | 87° |
| 2026-05-06 07:56 | 40.06365 | 42.71917 | 37050 ft | 489 kts | 88° |
| 2026-05-06 07:56 | 40.06935 | 42.80713 | 37047 ft | 488 kts | 88° |
| 2026-05-06 07:57 | 40.07382 | 42.89555 | 37049 ft | 489 kts | 89° |
| 2026-05-06 07:57 | 40.07729 | 42.98433 | 37047 ft | 491 kts | 89° |
| 2026-05-06 07:58 | 40.08157 | 43.07304 | 37047 ft | 492 kts | 88° |
| 2026-05-06 07:58 | 40.08646 | 43.16207 | 37048 ft | 495 kts | 87° |
| 2026-05-06 07:59 | 40.09146 | 43.25154 | 37033 ft | 497 kts | 87° |
| 2026-05-06 07:59 | 40.09663 | 43.34156 | 37003 ft | 499 kts | 86° |
| 2026-05-06 08:00 | 40.10153 | 43.43222 | 36975 ft | 499 kts | 88° |
| 2026-05-06 08:00 | 40.10602 | 43.52280 | 36968 ft | 500 kts | 88° |
| 2026-05-06 08:01 | 40.11044 | 43.61274 | 36969 ft | 500 kts | 87° |
| 2026-05-06 08:01 | 40.11502 | 43.70336 | 36965 ft | 500 kts | 88° |
| 2026-05-06 08:02 | 40.11832 | 43.79365 | 36964 ft | 500 kts | 89° |
| 2026-05-06 08:02 | 40.12044 | 43.88411 | 36967 ft | 499 kts | 91° |
| 2026-05-06 08:03 | 40.12179 | 43.97400 | 36964 ft | 496 kts | 91° |
| 2026-05-06 08:03 | 40.12342 | 44.06391 | 36961 ft | 497 kts | 90° |
| 2026-05-06 08:04 | 40.12493 | 44.15447 | 36970 ft | 498 kts | 91° |
| 2026-05-06 08:04 | 40.12594 | 44.24466 | 36966 ft | 499 kts | 90° |
| 2026-05-06 08:05 | 40.12740 | 44.33504 | 36965 ft | 500 kts | 90° |
| 2026-05-06 08:05 | 40.12839 | 44.42576 | 36964 ft | 498 kts | 91° |
| 2026-05-06 08:06 | 40.12879 | 44.51611 | 36965 ft | 499 kts | 91° |
| 2026-05-06 08:06 | 40.12913 | 44.60618 | 36966 ft | 498 kts | 91° |
| 2026-05-06 08:07 | 40.12901 | 44.68158 | 36968 ft | 497 kts | 93° |
| 2026-05-06 08:07 | 40.12890 | 44.78655 | 36967 ft | 499 kts | 92° |
| 2026-05-06 08:08 | 40.12925 | 44.87705 | 36963 ft | 499 kts | 92° |
| 2026-05-06 08:08 | 40.12990 | 44.96756 | 36967 ft | 499 kts | 90° |
| 2026-05-06 08:09 | 40.13077 | 45.05778 | 36967 ft | 498 kts | 90° |
| 2026-05-06 08:09 | 40.13143 | 45.14756 | 36965 ft | 497 kts | 90° |
| 2026-05-06 08:10 | 40.13189 | 45.23819 | 36965 ft | 497 kts | 90° |
| 2026-05-06 08:10 | 40.13239 | 45.32818 | 36961 ft | 498 kts | 90° |
| 2026-05-06 08:11 | 40.13264 | 45.40301 | 36967 ft | 498 kts | 90° |
| 2026-05-06 08:11 | 40.13287 | 45.50832 | 36986 ft | 497 kts | 90° |
| 2026-05-06 08:12 | 40.13288 | 45.59844 | 37003 ft | 498 kts | 90° |
| 2026-05-06 08:12 | 40.13325 | 45.68858 | 37010 ft | 498 kts | 91° |
| 2026-05-06 08:13 | 40.13319 | 45.77897 | 37016 ft | 498 kts | 91° |
| 2026-05-06 08:13 | 40.13335 | 45.86931 | 37019 ft | 498 kts | 90° |
| 2026-05-06 08:14 | 40.13325 | 45.95964 | 37020 ft | 497 kts | 90° |
| 2026-05-06 08:14 | 40.13531 | 46.04966 | 37020 ft | 498 kts | 87° |
| 2026-05-06 08:15 | 40.13925 | 46.13970 | 37021 ft | 498 kts | 87° |
| 2026-05-06 08:15 | 40.14257 | 46.22944 | 37019 ft | 497 kts | 88° |
| 2026-05-06 08:16 | 40.14559 | 46.31980 | 37019 ft | 497 kts | 88° |
| 2026-05-06 08:16 | 40.14762 | 46.40971 | 37019 ft | 498 kts | 89° |
| 2026-05-06 08:17 | 40.14940 | 46.50029 | 37019 ft | 499 kts | 88° |
| 2026-05-06 08:17 | 40.15200 | 46.59037 | 37020 ft | 498 kts | 87° |
| 2026-05-06 08:18 | 40.15476 | 46.68053 | 37019 ft | 498 kts | 88° |
| 2026-05-06 08:18 | 40.15710 | 46.77098 | 37021 ft | 498 kts | 89° |
| 2026-05-06 08:19 | 40.15929 | 46.86087 | 37019 ft | 498 kts | 88° |
| 2026-05-06 08:19 | 40.16123 | 46.95143 | 37019 ft | 499 kts | 88° |
| 2026-05-06 08:20 | 40.16331 | 47.04166 | 37018 ft | 498 kts | 88° |
| 2026-05-06 08:20 | 40.16468 | 47.13180 | 37004 ft | 499 kts | 88° |
| 2026-05-06 08:21 | 40.16584 | 47.22258 | 36979 ft | 500 kts | 88° |
| 2026-05-06 08:21 | 40.16732 | 47.31285 | 36966 ft | 498 kts | 88° |
| 2026-05-06 08:22 | 40.16871 | 47.40319 | 36966 ft | 499 kts | 88° |
| 2026-05-06 08:22 | 40.17005 | 47.49362 | 36966 ft | 500 kts | 88° |
| 2026-05-06 08:23 | 40.17167 | 47.58396 | 36965 ft | 497 kts | 88° |
| 2026-05-06 08:23 | 40.17287 | 47.67440 | 36965 ft | 499 kts | 89° |
| 2026-05-06 08:24 | 40.17433 | 47.76476 | 36964 ft | 498 kts | 88° |
| 2026-05-06 08:24 | 40.17603 | 47.85541 | 36967 ft | 498 kts | 88° |
| 2026-05-06 08:25 | 40.17736 | 47.94528 | 36967 ft | 500 kts | 88° |
| 2026-05-06 08:25 | 40.17836 | 48.03631 | 36966 ft | 500 kts | 88° |
| 2026-05-06 08:26 | 40.17971 | 48.12680 | 36964 ft | 498 kts | 87° |
| 2026-05-06 08:26 | 40.18182 | 48.21676 | 36967 ft | 499 kts | 88° |
| 2026-05-06 08:27 | 40.18339 | 48.30729 | 36965 ft | 499 kts | 88° |
| 2026-05-06 08:27 | 40.18406 | 48.39769 | 36966 ft | 498 kts | 89° |
| 2026-05-06 08:28 | 40.18405 | 48.48831 | 36967 ft | 498 kts | 89° |
| 2026-05-06 08:28 | 40.18437 | 48.56355 | 36967 ft | 500 kts | 88° |
| 2026-05-06 08:29 | 40.18554 | 48.66908 | 36967 ft | 499 kts | 89° |
| 2026-05-06 08:29 | 40.18692 | 48.76004 | 36969 ft | 499 kts | 88° |
| 2026-05-06 08:30 | 40.18790 | 48.85032 | 36975 ft | 497 kts | 89° |
| 2026-05-06 08:30 | 40.18855 | 48.94049 | 36989 ft | 498 kts | 89° |
| 2026-05-06 08:31 | 40.18883 | 49.03068 | 36991 ft | 498 kts | 89° |
| 2026-05-06 08:31 | 40.18908 | 49.12104 | 36994 ft | 495 kts | 90° |
| 2026-05-06 08:32 | 40.18922 | 49.21020 | 36991 ft | 493 kts | 90° |
| 2026-05-06 08:32 | 40.18930 | 49.29973 | 36994 ft | 493 kts | 90° |
| 2026-05-06 08:33 | 40.18977 | 49.38902 | 36992 ft | 493 kts | 89° |
| 2026-05-06 08:33 | 40.18997 | 49.47866 | 36993 ft | 493 kts | 90° |
| 2026-05-06 08:34 | 40.18052 | 49.61156 | 36991 ft | 491 kts | 98° |
| 2026-05-06 08:35 | 40.17195 | 49.69976 | 36992 ft | 490 kts | 98° |
| 2026-05-06 08:35 | 40.16428 | 49.78867 | 36995 ft | 492 kts | 98° |
| 2026-05-06 08:36 | 40.15625 | 49.87736 | 36994 ft | 493 kts | 98° |
| 2026-05-06 08:36 | 40.14790 | 49.96573 | 36990 ft | 491 kts | 98° |
| 2026-05-06 08:37 | 40.13956 | 50.05409 | 36994 ft | 492 kts | 98° |
| 2026-05-06 08:37 | 40.13120 | 50.14220 | 36991 ft | 492 kts | 98° |
| 2026-05-06 08:38 | 40.12280 | 50.23063 | 36994 ft | 491 kts | 98° |
| 2026-05-06 08:38 | 40.11385 | 50.31937 | 36993 ft | 493 kts | 99° |
| 2026-05-06 08:39 | 40.10428 | 50.40775 | 36994 ft | 494 kts | 98° |
| 2026-05-06 08:39 | 40.09505 | 50.49628 | 36991 ft | 491 kts | 98° |
| 2026-05-06 08:40 | 40.08619 | 50.58437 | 36995 ft | 491 kts | 98° |
| 2026-05-06 08:40 | 40.07737 | 50.67220 | 36991 ft | 491 kts | 99° |
| 2026-05-06 08:41 | 40.06829 | 50.76022 | 36993 ft | 490 kts | 99° |
| 2026-05-06 08:41 | 40.05927 | 50.84862 | 36992 ft | 492 kts | 98° |
| 2026-05-06 08:42 | 40.05094 | 50.93704 | 36993 ft | 492 kts | 98° |
| 2026-05-06 08:42 | 40.04236 | 51.02483 | 36991 ft | 486 kts | 98° |
| 2026-05-06 08:43 | 40.03340 | 51.11183 | 36993 ft | 482 kts | 99° |
| 2026-05-06 08:43 | 40.02434 | 51.19835 | 36994 ft | 482 kts | 99° |
| 2026-05-06 08:44 | 40.01522 | 51.28457 | 36992 ft | 483 kts | 99° |
| 2026-05-06 08:44 | 40.00589 | 51.37112 | 36965 ft | 483 kts | 99° |
| 2026-05-06 08:45 | 39.99674 | 51.45757 | 36947 ft | 483 kts | 98° |
| 2026-05-06 08:45 | 39.99384 | 51.54496 | 36930 ft | 485 kts | 87° |
| 2026-05-06 08:46 | 39.99765 | 51.63237 | 36912 ft | 484 kts | 87° |
| 2026-05-06 08:46 | 40.00109 | 51.71996 | 36912 ft | 484 kts | 88° |
| 2026-05-06 08:47 | 40.00418 | 51.80737 | 36912 ft | 483 kts | 88° |
| 2026-05-06 08:47 | 40.00722 | 51.89521 | 36912 ft | 485 kts | 89° |
| 2026-05-06 08:48 | 40.00939 | 51.98271 | 36911 ft | 483 kts | 88° |
| 2026-05-06 08:48 | 40.01181 | 52.06987 | 36914 ft | 484 kts | 88° |
| 2026-05-06 08:49 | 40.01445 | 52.15749 | 36912 ft | 484 kts | 88° |
| 2026-05-06 08:49 | 40.01740 | 52.24498 | 36911 ft | 484 kts | 87° |
| 2026-05-06 08:50 | 40.02081 | 52.33247 | 36913 ft | 485 kts | 88° |
| 2026-05-06 08:50 | 40.02396 | 52.42038 | 36911 ft | 485 kts | 88° |
| 2026-05-06 08:51 | 40.02695 | 52.50794 | 36913 ft | 484 kts | 88° |
| 2026-05-06 08:51 | 40.02980 | 52.59520 | 36912 ft | 485 kts | 88° |
| 2026-05-06 08:52 | 40.03203 | 52.68295 | 36912 ft | 485 kts | 89° |
| 2026-05-06 08:52 | 40.03358 | 52.77061 | 36911 ft | 482 kts | 89° |
| 2026-05-06 08:53 | 40.03551 | 52.85766 | 36912 ft | 485 kts | 89° |
| 2026-05-06 08:53 | 40.03765 | 52.94553 | 36911 ft | 487 kts | 89° |
| 2026-05-06 08:54 | 40.03753 | 53.03399 | 36912 ft | 488 kts | 96° |
| 2026-05-06 08:54 | 40.02881 | 53.12114 | 36911 ft | 488 kts | 99° |
| 2026-05-06 08:55 | 40.02037 | 53.20914 | 36912 ft | 487 kts | 98° |
| 2026-05-06 08:55 | 40.01206 | 53.29641 | 36912 ft | 486 kts | 98° |
| 2026-05-06 08:56 | 40.00335 | 53.38372 | 36912 ft | 488 kts | 98° |
| 2026-05-06 08:56 | 39.99459 | 53.47125 | 36912 ft | 489 kts | 98° |
| 2026-05-06 08:57 | 39.98579 | 53.55826 | 36911 ft | 487 kts | 98° |
| 2026-05-06 08:57 | 39.97686 | 53.64561 | 36912 ft | 486 kts | 98° |
| 2026-05-06 08:58 | 39.96767 | 53.73297 | 36912 ft | 487 kts | 100° |
| 2026-05-06 08:58 | 39.95804 | 53.82006 | 36913 ft | 487 kts | 100° |
| 2026-05-06 08:59 | 39.94857 | 53.90667 | 36911 ft | 486 kts | 99° |
| 2026-05-06 08:59 | 39.93921 | 53.99386 | 36912 ft | 485 kts | 99° |
| 2026-05-06 09:00 | 39.92986 | 54.08085 | 36911 ft | 487 kts | 99° |
| 2026-05-06 09:00 | 39.92044 | 54.16794 | 36911 ft | 486 kts | 99° |
| 2026-05-06 09:01 | 39.91094 | 54.25489 | 36912 ft | 486 kts | 99° |
| 2026-05-06 09:01 | 39.90134 | 54.34180 | 36913 ft | 488 kts | 99° |
| 2026-05-06 09:02 | 39.89149 | 54.42909 | 36911 ft | 486 kts | 100° |
| 2026-05-06 09:02 | 39.87644 | 54.51455 | 36913 ft | 485 kts | 108° |
| 2026-05-06 09:03 | 39.85799 | 54.59837 | 36911 ft | 483 kts | 107° |
| 2026-05-06 09:03 | 39.84044 | 54.68233 | 36911 ft | 484 kts | 108° |
| 2026-05-06 09:04 | 39.82662 | 54.76807 | 36910 ft | 487 kts | 97° |
| 2026-05-06 09:04 | 39.82668 | 54.85580 | 36913 ft | 488 kts | 87° |
| 2026-05-06 09:05 | 39.82965 | 54.94399 | 36911 ft | 488 kts | 88° |
| 2026-05-06 09:05 | 39.83227 | 55.03177 | 36911 ft | 489 kts | 88° |
| 2026-05-06 09:06 | 39.83503 | 55.12046 | 36912 ft | 490 kts | 88° |
| 2026-05-06 09:06 | 39.83789 | 55.20864 | 36911 ft | 491 kts | 87° |
| 2026-05-06 09:07 | 39.84063 | 55.29711 | 36911 ft | 491 kts | 88° |
| 2026-05-06 09:07 | 39.84337 | 55.38582 | 36913 ft | 491 kts | 88° |
| 2026-05-06 09:08 | 39.84602 | 55.47463 | 36910 ft | 491 kts | 87° |
| 2026-05-06 09:08 | 39.84864 | 55.56287 | 36899 ft | 491 kts | 87° |
| 2026-05-06 09:09 | 39.85124 | 55.65149 | 36890 ft | 490 kts | 88° |
| 2026-05-06 09:09 | 39.85348 | 55.73972 | 36885 ft | 490 kts | 88° |
| 2026-05-06 09:10 | 39.85593 | 55.82868 | 36885 ft | 491 kts | 88° |
| 2026-05-06 09:10 | 39.85834 | 55.91689 | 36884 ft | 490 kts | 88° |
| 2026-05-06 09:11 | 39.86014 | 56.00518 | 36885 ft | 490 kts | 89° |
| 2026-05-06 09:11 | 39.86154 | 56.09409 | 36885 ft | 490 kts | 89° |
| 2026-05-06 09:12 | 39.86338 | 56.18257 | 36888 ft | 489 kts | 88° |
| 2026-05-06 09:12 | 39.86545 | 56.27069 | 36919 ft | 491 kts | 88° |
| 2026-05-06 09:13 | 39.86743 | 56.35978 | 36947 ft | 490 kts | 88° |
| 2026-05-06 09:13 | 39.86908 | 56.44785 | 36965 ft | 490 kts | 88° |
| 2026-05-06 09:14 | 39.87106 | 56.53628 | 36966 ft | 491 kts | 88° |
| 2026-05-06 09:14 | 39.87294 | 56.62477 | 36961 ft | 491 kts | 88° |
| 2026-05-06 09:15 | 39.87474 | 56.71358 | 36905 ft | 489 kts | 89° |
| 2026-05-06 09:15 | 39.87624 | 56.80143 | 36856 ft | 489 kts | 89° |
| 2026-05-06 09:16 | 39.87788 | 56.88999 | 36807 ft | 491 kts | 89° |
| 2026-05-06 09:16 | 39.87944 | 56.97865 | 36805 ft | 490 kts | 88° |
| 2026-05-06 09:17 | 39.88093 | 57.06688 | 36804 ft | 490 kts | 88° |
| 2026-05-06 09:17 | 39.88241 | 57.15583 | 36804 ft | 491 kts | 88° |
| 2026-05-06 09:18 | 39.88377 | 57.24387 | 36803 ft | 490 kts | 88° |
| 2026-05-06 09:18 | 39.88503 | 57.33247 | 36804 ft | 491 kts | 88° |
| 2026-05-06 09:19 | 39.88641 | 57.42110 | 36804 ft | 491 kts | 88° |
| 2026-05-06 09:19 | 39.88763 | 57.51005 | 36805 ft | 491 kts | 88° |
| 2026-05-06 09:20 | 39.88861 | 57.59859 | 36803 ft | 490 kts | 88° |
| 2026-05-06 09:20 | 39.88967 | 57.68726 | 36804 ft | 490 kts | 89° |
| 2026-05-06 09:21 | 39.89065 | 57.77574 | 36804 ft | 491 kts | 89° |
| 2026-05-06 09:21 | 39.89145 | 57.86438 | 36803 ft | 491 kts | 89° |
| 2026-05-06 09:22 | 39.89249 | 57.95264 | 36803 ft | 491 kts | 89° |
| 2026-05-06 09:22 | 39.89323 | 58.04151 | 36805 ft | 491 kts | 89° |
| 2026-05-06 09:23 | 39.89376 | 58.13019 | 36804 ft | 491 kts | 89° |
| 2026-05-06 09:23 | 39.89482 | 58.21864 | 36803 ft | 490 kts | 88° |
| 2026-05-06 09:24 | 39.89668 | 58.30712 | 36805 ft | 492 kts | 88° |
| 2026-05-06 09:24 | 39.89796 | 58.39634 | 36802 ft | 491 kts | 88° |
| 2026-05-06 09:25 | 39.89915 | 58.48467 | 36804 ft | 490 kts | 88° |
| 2026-05-06 09:25 | 39.89998 | 58.57317 | 36803 ft | 492 kts | 88° |
| 2026-05-06 09:26 | 39.90078 | 58.66231 | 36814 ft | 491 kts | 89° |
| 2026-05-06 09:26 | 39.90135 | 58.75086 | 36826 ft | 490 kts | 90° |
| 2026-05-06 09:27 | 39.90171 | 58.83913 | 36835 ft | 489 kts | 89° |
| 2026-05-06 09:27 | 39.90211 | 58.92778 | 36835 ft | 491 kts | 89° |
| 2026-05-06 09:28 | 39.90258 | 59.01574 | 36834 ft | 489 kts | 88° |
| 2026-05-06 09:28 | 39.90284 | 59.10428 | 36847 ft | 488 kts | 88° |
| 2026-05-06 09:29 | 39.90285 | 59.19239 | 36864 ft | 489 kts | 88° |
| 2026-05-06 09:29 | 39.90271 | 59.28043 | 36882 ft | 488 kts | 88° |
| 2026-05-06 09:30 | 39.90269 | 59.36866 | 36885 ft | 489 kts | 87° |
| 2026-05-06 09:30 | 39.90237 | 59.45720 | 36884 ft | 488 kts | 88° |
| 2026-05-06 09:31 | 39.90190 | 59.54528 | 36885 ft | 488 kts | 88° |
| 2026-05-06 09:31 | 39.90144 | 59.63353 | 36884 ft | 488 kts | 88° |
| 2026-05-06 09:32 | 39.90096 | 59.72180 | 36885 ft | 489 kts | 88° |
| 2026-05-06 09:32 | 39.90049 | 59.81013 | 36885 ft | 489 kts | 88° |
| 2026-05-06 09:33 | 39.89999 | 59.89826 | 36885 ft | 488 kts | 88° |
| 2026-05-06 09:33 | 39.89930 | 59.98659 | 36885 ft | 489 kts | 88° |
| 2026-05-06 09:34 | 39.89851 | 60.07507 | 36884 ft | 489 kts | 88° |
| 2026-05-06 09:34 | 39.89742 | 60.16305 | 36885 ft | 488 kts | 89° |
| 2026-05-06 09:35 | 39.89587 | 60.25142 | 36881 ft | 490 kts | 93° |
| 2026-05-06 09:35 | 39.88287 | 60.33872 | 36886 ft | 492 kts | 104° |
| 2026-05-06 09:36 | 39.86657 | 60.42461 | 36884 ft | 491 kts | 102° |
| 2026-05-06 09:36 | 39.85091 | 60.51104 | 36885 ft | 491 kts | 103° |
| 2026-05-06 09:37 | 39.83437 | 60.59691 | 36885 ft | 491 kts | 103° |
| 2026-05-06 09:37 | 39.81740 | 60.68248 | 36886 ft | 492 kts | 104° |
| 2026-05-06 09:38 | 39.80054 | 60.76843 | 36882 ft | 491 kts | 104° |
| 2026-05-06 09:38 | 39.78362 | 60.85426 | 36871 ft | 492 kts | 104° |
| 2026-05-06 09:39 | 39.76641 | 60.94025 | 36853 ft | 491 kts | 104° |
| 2026-05-06 09:39 | 39.74935 | 61.02528 | 36832 ft | 490 kts | 104° |
| 2026-05-06 09:40 | 39.73248 | 61.11024 | 36815 ft | 484 kts | 104° |
| 2026-05-06 09:40 | 39.70695 | 61.23619 | 36803 ft | 478 kts | 105° |
| 2026-05-06 09:41 | 39.69008 | 61.31932 | 36805 ft | 479 kts | 105° |
| 2026-05-06 09:41 | 39.67352 | 61.40288 | 36803 ft | 480 kts | 104° |
| 2026-05-06 09:42 | 39.65685 | 61.48668 | 36813 ft | 480 kts | 105° |
| 2026-05-06 09:42 | 39.64010 | 61.57024 | 36834 ft | 481 kts | 105° |
| 2026-05-06 09:43 | 39.62268 | 61.65350 | 36848 ft | 479 kts | 106° |
| 2026-05-06 09:43 | 39.60509 | 61.73624 | 36854 ft | 479 kts | 106° |
| 2026-05-06 09:44 | 39.58782 | 61.81936 | 36862 ft | 479 kts | 105° |
| 2026-05-06 09:44 | 39.57080 | 61.90293 | 36880 ft | 479 kts | 105° |
| 2026-05-06 09:45 | 39.55376 | 61.98636 | 36886 ft | 480 kts | 105° |
| 2026-05-06 09:45 | 39.53651 | 62.06919 | 36883 ft | 478 kts | 106° |
| 2026-05-06 09:46 | 39.51880 | 62.15218 | 36885 ft | 479 kts | 106° |
| 2026-05-06 09:46 | 39.50089 | 62.23476 | 36884 ft | 479 kts | 106° |
| 2026-05-06 09:47 | 39.48325 | 62.31769 | 36885 ft | 479 kts | 105° |
| 2026-05-06 09:47 | 39.46595 | 62.40078 | 36886 ft | 479 kts | 105° |
| 2026-05-06 09:48 | 39.44839 | 62.48369 | 36886 ft | 479 kts | 106° |
| 2026-05-06 09:48 | 39.43053 | 62.56668 | 36885 ft | 480 kts | 106° |
| 2026-05-06 09:49 | 39.41237 | 62.64934 | 36885 ft | 480 kts | 106° |
| 2026-05-06 09:49 | 39.39447 | 62.73215 | 36883 ft | 478 kts | 106° |
| 2026-05-06 09:50 | 39.37677 | 62.81491 | 36885 ft | 478 kts | 106° |
| 2026-05-06 09:50 | 39.35894 | 62.89742 | 36885 ft | 480 kts | 106° |
| 2026-05-06 09:51 | 39.34096 | 62.98000 | 36884 ft | 479 kts | 107° |
| 2026-05-06 09:51 | 39.32270 | 63.06218 | 36885 ft | 476 kts | 107° |
| 2026-05-06 09:52 | 39.30433 | 63.14433 | 36886 ft | 477 kts | 107° |
| 2026-05-06 09:52 | 39.28632 | 63.22622 | 36884 ft | 478 kts | 107° |
| 2026-05-06 09:53 | 39.26842 | 63.30862 | 36883 ft | 477 kts | 107° |
| 2026-05-06 09:53 | 39.25017 | 63.39069 | 36887 ft | 478 kts | 107° |
| 2026-05-06 09:54 | 39.23139 | 63.47260 | 36884 ft | 478 kts | 107° |
| 2026-05-06 09:54 | 39.21263 | 63.55444 | 36885 ft | 477 kts | 107° |
| 2026-05-06 09:55 | 39.19445 | 63.63651 | 36884 ft | 477 kts | 106° |
| 2026-05-06 09:55 | 39.17634 | 63.71856 | 36883 ft | 477 kts | 107° |
| 2026-05-06 09:56 | 39.15792 | 63.80037 | 36884 ft | 477 kts | 108° |
| 2026-05-06 09:56 | 39.13908 | 63.88194 | 36884 ft | 476 kts | 108° |
| 2026-05-06 09:57 | 39.12013 | 63.96392 | 36883 ft | 477 kts | 108° |
| 2026-05-06 09:57 | 39.10125 | 64.04539 | 36884 ft | 477 kts | 108° |
| 2026-05-06 09:58 | 39.08232 | 64.12701 | 36884 ft | 477 kts | 108° |
| 2026-05-06 09:58 | 39.06446 | 64.20859 | 36886 ft | 477 kts | 105° |
| 2026-05-06 09:59 | 39.04769 | 64.29157 | 36883 ft | 479 kts | 105° |
| 2026-05-06 09:59 | 39.03064 | 64.37351 | 36884 ft | 478 kts | 106° |
| 2026-05-06 10:00 | 39.01345 | 64.45590 | 36885 ft | 478 kts | 106° |
| 2026-05-06 10:00 | 38.99543 | 64.53838 | 36885 ft | 479 kts | 107° |
| 2026-05-06 10:01 | 38.97777 | 64.62077 | 36887 ft | 480 kts | 106° |
| 2026-05-06 10:01 | 38.96041 | 64.70302 | 36885 ft | 482 kts | 107° |
| 2026-05-06 10:02 | 38.94254 | 64.78599 | 36884 ft | 482 kts | 107° |
| 2026-05-06 10:02 | 38.92456 | 64.86852 | 36884 ft | 480 kts | 107° |
| 2026-05-06 10:03 | 38.90653 | 64.95085 | 36885 ft | 480 kts | 107° |
| 2026-05-06 10:03 | 38.88837 | 65.03334 | 36884 ft | 480 kts | 107° |
| 2026-05-06 10:04 | 38.87041 | 65.11562 | 36885 ft | 479 kts | 107° |
| 2026-05-06 10:04 | 38.85260 | 65.19755 | 36885 ft | 480 kts | 107° |
| 2026-05-06 10:05 | 38.83438 | 65.27976 | 36884 ft | 481 kts | 108° |
| 2026-05-06 10:05 | 38.81640 | 65.36054 | 36884 ft | 480 kts | 107° |
| 2026-05-06 10:06 | 38.79808 | 65.44269 | 36884 ft | 480 kts | 107° |
| 2026-05-06 10:06 | 38.77980 | 65.52477 | 36885 ft | 479 kts | 107° |
| 2026-05-06 10:07 | 38.76160 | 65.60665 | 36885 ft | 481 kts | 107° |
| 2026-05-06 10:07 | 38.74327 | 65.68905 | 36885 ft | 481 kts | 108° |
| 2026-05-06 10:08 | 38.72497 | 65.77107 | 36886 ft | 479 kts | 108° |
| 2026-05-06 10:08 | 38.70672 | 65.85255 | 36885 ft | 480 kts | 108° |
| 2026-05-06 10:09 | 38.68801 | 65.93479 | 36885 ft | 480 kts | 108° |
| 2026-05-06 10:09 | 38.66919 | 66.01661 | 36887 ft | 480 kts | 108° |
| 2026-05-06 10:10 | 38.65053 | 66.09811 | 36942 ft | 480 kts | 108° |
| 2026-05-06 10:10 | 38.63189 | 66.17989 | 36997 ft | 481 kts | 107° |
| 2026-05-06 10:11 | 38.61861 | 66.26319 | 37047 ft | 482 kts | 95° |
| 2026-05-06 10:11 | 38.61556 | 66.34881 | 37047 ft | 483 kts | 92° |
| 2026-05-06 10:12 | 38.61239 | 66.43453 | 37047 ft | 482 kts | 93° |
| 2026-05-06 10:12 | 38.60864 | 66.51971 | 37047 ft | 482 kts | 93° |
| 2026-05-06 10:13 | 38.60532 | 66.60461 | 37046 ft | 482 kts | 92° |
| 2026-05-06 10:13 | 38.60267 | 66.69020 | 37047 ft | 482 kts | 92° |
| 2026-05-06 10:14 | 38.59964 | 66.77595 | 37048 ft | 482 kts | 94° |
| 2026-05-06 10:14 | 38.59586 | 66.86118 | 37047 ft | 483 kts | 94° |
| 2026-05-06 10:15 | 38.59243 | 66.94666 | 37047 ft | 482 kts | 93° |
| 2026-05-06 10:15 | 38.59106 | 66.98901 | 36626 ft | 480 kts | 92° |
| 2026-05-06 10:15 | 38.58961 | 67.03153 | 35951 ft | 479 kts | 93° |
| 2026-05-06 10:16 | 38.58802 | 67.07394 | 35393 ft | 476 kts | 93° |
| 2026-05-06 10:16 | 38.58638 | 67.11571 | 34818 ft | 473 kts | 93° |
| 2026-05-06 10:16 | 38.58458 | 67.15749 | 34239 ft | 470 kts | 93° |
| 2026-05-06 10:16 | 38.58277 | 67.19881 | 33666 ft | 467 kts | 93° |
| 2026-05-06 10:17 | 38.58102 | 67.23962 | 33098 ft | 464 kts | 92° |
| 2026-05-06 10:17 | 38.57928 | 67.28055 | 32525 ft | 461 kts | 92° |
| 2026-05-06 10:17 | 38.57753 | 67.32117 | 31956 ft | 458 kts | 92° |
| 2026-05-06 10:17 | 38.57578 | 67.36192 | 31382 ft | 455 kts | 92° |
| 2026-05-06 10:18 | 38.57404 | 67.40186 | 30819 ft | 452 kts | 92° |
| 2026-05-06 10:18 | 38.57231 | 67.44156 | 30256 ft | 449 kts | 92° |
| 2026-05-06 10:18 | 38.57058 | 67.48100 | 29697 ft | 446 kts | 92° |
| 2026-05-06 10:18 | 38.56885 | 67.52029 | 29139 ft | 442 kts | 92° |
| 2026-05-06 10:19 | 38.56710 | 67.55965 | 28577 ft | 439 kts | 92° |
| 2026-05-06 10:19 | 38.56537 | 67.59816 | 28028 ft | 436 kts | 92° |
| 2026-05-06 10:19 | 38.56364 | 67.63671 | 27474 ft | 432 kts | 92° |
| 2026-05-06 10:19 | 38.56191 | 67.67477 | 26928 ft | 429 kts | 92° |
| 2026-05-06 10:20 | 38.56019 | 67.71255 | 26385 ft | 425 kts | 92° |
| 2026-05-06 10:20 | 38.55851 | 67.74963 | 25851 ft | 422 kts | 92° |
| 2026-05-06 10:20 | 38.55721 | 67.78706 | 25313 ft | 418 kts | 91° |
| 2026-05-06 10:20 | 38.55624 | 67.82384 | 24783 ft | 414 kts | 91° |
| 2026-05-06 10:21 | 38.55523 | 67.85999 | 24261 ft | 410 kts | 91° |
| 2026-05-06 10:21 | 38.55413 | 67.89617 | 23737 ft | 407 kts | 91° |
| 2026-05-06 10:21 | 38.55303 | 67.93193 | 23219 ft | 403 kts | 91° |
| 2026-05-06 10:21 | 38.55193 | 67.96748 | 22704 ft | 399 kts | 91° |
| 2026-05-06 10:22 | 38.55082 | 68.00294 | 22190 ft | 395 kts | 91° |
| 2026-05-06 10:22 | 38.54973 | 68.03764 | 21686 ft | 392 kts | 91° |
| 2026-05-06 10:22 | 38.54862 | 68.07213 | 21184 ft | 388 kts | 91° |
| 2026-05-06 10:22 | 38.54752 | 68.10603 | 20690 ft | 384 kts | 91° |
| 2026-05-06 10:23 | 38.54641 | 68.14016 | 20193 ft | 381 kts | 91° |
| 2026-05-06 10:23 | 38.54530 | 68.17381 | 19701 ft | 377 kts | 91° |
| 2026-05-06 10:23 | 38.54420 | 68.20671 | 19220 ft | 373 kts | 91° |
| 2026-05-06 10:23 | 38.54310 | 68.23953 | 18739 ft | 370 kts | 91° |
| 2026-05-06 10:24 | 38.54200 | 68.27213 | 18261 ft | 366 kts | 91° |
| 2026-05-06 10:24 | 38.54090 | 68.30447 | 17788 ft | 363 kts | 91° |
| 2026-05-06 10:24 | 38.53981 | 68.33619 | 17323 ft | 359 kts | 91° |
| 2026-05-06 10:24 | 38.53870 | 68.36806 | 16855 ft | 355 kts | 91° |
| 2026-05-06 10:25 | 38.53768 | 68.39922 | 16373 ft | 353 kts | 90° |
| 2026-05-06 10:25 | 38.53792 | 68.43057 | 15893 ft | 349 kts | 86° |
| 2026-05-06 10:25 | 38.53878 | 68.46109 | 15444 ft | 346 kts | 87° |
| 2026-05-06 10:25 | 38.53936 | 68.49141 | 15001 ft | 342 kts | 88° |
| 2026-05-06 10:26 | 38.53985 | 68.52186 | 14555 ft | 339 kts | 88° |
| 2026-05-06 10:26 | 38.54034 | 68.55149 | 14116 ft | 335 kts | 88° |
| 2026-05-06 10:26 | 38.54082 | 68.58090 | 13662 ft | 333 kts | 88° |
| 2026-05-06 10:26 | 38.54129 | 68.61042 | 13207 ft | 330 kts | 88° |
| 2026-05-06 10:27 | 38.54172 | 68.63928 | 12930 ft | 321 kts | 88° |
| 2026-05-06 10:27 | 38.54214 | 68.66732 | 12820 ft | 307 kts | 88° |
| 2026-05-06 10:27 | 38.54197 | 68.69405 | 12705 ft | 295 kts | 97° |
| 2026-05-06 10:27 | 38.53540 | 68.71795 | 12603 ft | 282 kts | 126° |
| 2026-05-06 10:28 | 38.52153 | 68.73470 | 12367 ft | 276 kts | 149° |
| 2026-05-06 10:28 | 38.50397 | 68.74397 | 12042 ft | 272 kts | 171° |
| 2026-05-06 10:28 | 38.48557 | 68.74443 | 11735 ft | 267 kts | 193° |
| 2026-05-06 10:28 | 38.46950 | 68.73408 | 11446 ft | 259 kts | 227° |
| 2026-05-06 10:29 | 38.46016 | 68.71484 | 11181 ft | 252 kts | 250° |
| 2026-05-06 10:29 | 38.45652 | 68.69353 | 10885 ft | 248 kts | 269° |
| 2026-05-06 10:29 | 38.45686 | 68.67154 | 10617 ft | 244 kts | 271° |
| 2026-05-06 10:29 | 38.45697 | 68.65009 | 10326 ft | 243 kts | 270° |
| 2026-05-06 10:30 | 38.45696 | 68.62815 | 9821 ft | 249 kts | 270° |
| 2026-05-06 10:30 | 38.45699 | 68.60644 | 9608 ft | 244 kts | 270° |
| 2026-05-06 10:30 | 38.45701 | 68.58490 | 9347 ft | 240 kts | 270° |
| 2026-05-06 10:30 | 38.45703 | 68.56402 | 9093 ft | 236 kts | 270° |
| 2026-05-06 10:31 | 38.45704 | 68.54292 | 8840 ft | 239 kts | 270° |
| 2026-05-06 10:31 | 38.45784 | 68.52158 | 8559 ft | 244 kts | 283° |
| 2026-05-06 10:31 | 38.46553 | 68.50282 | 8307 ft | 243 kts | 316° |
| 2026-05-06 10:31 | 38.47984 | 68.49159 | 8044 ft | 244 kts | 342° |
| 2026-05-06 10:32 | 38.49673 | 68.48889 | 7774 ft | 245 kts | 0° |
| 2026-05-06 10:32 | 38.51373 | 68.48941 | 7494 ft | 246 kts | 3° |
| 2026-05-06 10:32 | 38.52990 | 68.49536 | 7173 ft | 248 kts | 33° |
| 2026-05-06 10:32 | 38.54084 | 68.51223 | 6721 ft | 250 kts | 72° |
| 2026-05-06 10:33 | 38.54331 | 68.53364 | 6440 ft | 244 kts | 91° |
| 2026-05-06 10:33 | 38.54336 | 68.55508 | 6133 ft | 239 kts | 90° |
| 2026-05-06 10:33 | 38.54365 | 68.57607 | 5858 ft | 233 kts | 90° |
| 2026-05-06 10:33 | 38.54385 | 68.59631 | 5599 ft | 226 kts | 91° |
| 2026-05-06 10:34 | 38.54392 | 68.61615 | 5341 ft | 221 kts | 91° |
| 2026-05-06 10:34 | 38.54395 | 68.63545 | 5092 ft | 216 kts | 91° |
| 2026-05-06 10:34 | 38.54393 | 68.65460 | 4856 ft | 213 kts | 91° |
| 2026-05-06 10:34 | 38.54393 | 68.67336 | 4669 ft | 211 kts | 91° |
| 2026-05-06 10:35 | 38.54391 | 68.69174 | 4374 ft | 202 kts | 91° |
| 2026-05-06 10:35 | 38.54389 | 68.70882 | 4094 ft | 187 kts | 92° |
| 2026-05-06 10:35 | 38.54387 | 68.72540 | 3860 ft | 179 kts | 92° |
| 2026-05-06 10:35 | 38.54385 | 68.74060 | 3623 ft | 169 kts | 92° |
| 2026-05-06 10:36 | 38.54384 | 68.75516 | 3374 ft | 163 kts | 92° |
| 2026-05-06 10:36 | 38.54368 | 68.76955 | 3153 ft | 161 kts | 94° |
| 2026-05-06 10:36 | 38.54348 | 68.78392 | 2944 ft | 163 kts | 91° |
| 2026-05-06 10:36 | 38.54348 | 68.79842 | 2733 ft | 163 kts | 94° |
| 2026-05-06 10:37 | 38.54335 | 68.81261 | 2585 ft | 149 kts | 91° |
| 2026-05-06 10:37 | 38.54325 | 68.82328 | 2584 ft | 89 kts | 89° |
| 2026-05-06 10:37 | 38.54326 | 68.82888 | 2584 ft | 46 kts | 91° |
| 2026-05-06 10:37 | 38.54324 | 68.83141 | 2584 ft | 16 kts | 88° |
| 2026-05-06 10:38 | 38.54330 | 68.83276 | 2584 ft | 15 kts | 79° |
| 2026-05-06 10:38 | 38.54401 | 68.83343 | 2584 ft | 14 kts | 3° |
| 2026-05-06 10:38 | 38.54518 | 68.83343 | 2584 ft | 19 kts | 1° |
| 2026-05-06 10:38 | 38.54639 | 68.83311 | 2584 ft | 17 kts | 292° |
| 2026-05-06 10:39 | 38.54647 | 68.83127 | 2584 ft | 24 kts | 270° |
| 2026-05-06 10:39 | 38.54647 | 68.82894 | 2584 ft | 27 kts | 270° |
| 2026-05-06 10:39 | 38.54647 | 68.82674 | 2584 ft | 23 kts | 270° |
| 2026-05-06 10:39 | 38.54647 | 68.82483 | 2584 ft | 21 kts | 270° |
| 2026-05-06 10:40 | 38.54657 | 68.82299 | 2584 ft | 22 kts | 269° |
| 2026-05-06 10:40 | 38.54657 | 68.82086 | 2584 ft | 25 kts | 270° |
| 2026-05-06 10:40 | 38.54657 | 68.81888 | 2584 ft | 12 kts | 270° |
| 2026-05-06 10:40 | 38.54677 | 68.81838 | 2584 ft | 9 kts | 345° |
| 2026-05-06 10:41 | 38.54751 | 68.81806 | 2584 ft | 11 kts | 295° |
| 2026-05-06 10:41 | 38.54756 | 68.81750 | 2584 ft | 0 kts | 269° |